sensor_id;sensor_type;location;lat;lon;timestamp;temperature;humidity
14172;DHT22;7165;52.388;4.928;2022-09-19T00:01:39;13.20;99.90
14172;DHT22;7165;52.388;4.928;2022-09-19T00:04:10;13.30;99.90
14172;DHT22;7165;52.388;4.928;2022-09-19T00:06:39;13.40;99.90
14172;DHT22;7165;52.388;4.928;2022-09-19T00:09:07;13.30;99.90
14172;DHT22;7165;52.388;4.928;2022-09-19T00:11:39;13.40;99.90
14172;DHT22;7165;52.388;4.928;2022-09-19T00:14:07;13.30;99.90
14172;DHT22;7165;52.388;4.928;2022-09-19T00:16:38;13.40;99.90
14172;DHT22;7165;52.388;4.928;2022-09-19T00:19:06;13.40;99.90
14172;DHT22;7165;52.388;4.928;2022-09-19T00:21:35;13.40;99.90
14172;DHT22;7165;52.388;4.928;2022-09-19T00:24:03;13.40;99.90
14172;DHT22;7165;52.388;4.928;2022-09-19T00:27:04;13.40;99.90
14172;DHT22;7165;52.388;4.928;2022-09-19T00:29:33;13.30;99.90
14172;DHT22;7165;52.388;4.928;2022-09-19T00:32:00;13.30;99.90
14172;DHT22;7165;52.388;4.928;2022-09-19T00:34:27;13.30;99.90
14172;DHT22;7165;52.388;4.928;2022-09-19T00:36:56;13.20;99.90
14172;DHT22;7165;52.388;4.928;2022-09-19T00:39:22;13.20;99.90
14172;DHT22;7165;52.388;4.928;2022-09-19T00:41:49;13.20;99.90
14172;DHT22;7165;52.388;4.928;2022-09-19T00:44:50;13.20;99.90
14172;DHT22;7165;52.388;4.928;2022-09-19T00:47:20;13.10;99.90
14172;DHT22;7165;52.388;4.928;2022-09-19T00:49:52;13.20;99.90
14172;DHT22;7165;52.388;4.928;2022-09-19T00:52:26;13.20;99.90
14172;DHT22;7165;52.388;4.928;2022-09-19T00:54:54;13.20;99.90
14172;DHT22;7165;52.388;4.928;2022-09-19T00:57:30;13.20;99.90
14172;DHT22;7165;52.388;4.928;2022-09-19T01:00:01;13.30;99.90
14172;DHT22;7165;52.388;4.928;2022-09-19T01:02:29;13.20;99.90
14172;DHT22;7165;52.388;4.928;2022-09-19T01:04:58;13.30;99.90
14172;DHT22;7165;52.388;4.928;2022-09-19T01:07:32;13.30;99.90
14172;DHT22;7165;52.388;4.928;2022-09-19T01:10:06;13.30;99.90
14172;DHT22;7165;52.388;4.928;2022-09-19T01:12:42;13.30;99.90
14172;DHT22;7165;52.388;4.928;2022-09-19T01:15:23;13.30;99.90
14172;DHT22;7165;52.388;4.928;2022-09-19T01:17:55;13.30;99.90
14172;DHT22;7165;52.388;4.928;2022-09-19T01:21:01;13.30;99.90
14172;DHT22;7165;52.388;4.928;2022-09-19T01:26:58;13.40;99.90
14172;DHT22;7165;52.388;4.928;2022-09-19T01:29:36;13.40;99.90
14172;DHT22;7165;52.388;4.928;2022-09-19T01:32:09;13.40;99.90
14172;DHT22;7165;52.388;4.928;2022-09-19T01:34:40;13.50;99.90
14172;DHT22;7165;52.388;4.928;2022-09-19T01:37:12;13.50;99.90
14172;DHT22;7165;52.388;4.928;2022-09-19T01:39:44;13.50;99.90
14172;DHT22;7165;52.388;4.928;2022-09-19T01:42:13;13.50;99.90
14172;DHT22;7165;52.388;4.928;2022-09-19T01:44:41;13.60;99.90
14172;DHT22;7165;52.388;4.928;2022-09-19T01:47:21;13.60;99.90
14172;DHT22;7165;52.388;4.928;2022-09-19T01:50:01;13.50;99.90
14172;DHT22;7165;52.388;4.928;2022-09-19T01:52:39;13.50;99.90
14172;DHT22;7165;52.388;4.928;2022-09-19T01:55:20;13.50;99.90
14172;DHT22;7165;52.388;4.928;2022-09-19T01:57:54;13.60;99.90
14172;DHT22;7165;52.388;4.928;2022-09-19T02:00:26;13.60;99.90
14172;DHT22;7165;52.388;4.928;2022-09-19T02:03:06;13.60;99.90
14172;DHT22;7165;52.388;4.928;2022-09-19T02:05:37;13.60;99.90
14172;DHT22;7165;52.388;4.928;2022-09-19T02:08:11;13.60;99.90
14172;DHT22;7165;52.388;4.928;2022-09-19T02:10:44;13.60;99.90
14172;DHT22;7165;52.388;4.928;2022-09-19T02:13:13;13.50;99.90
14172;DHT22;7165;52.388;4.928;2022-09-19T02:15:47;13.60;99.90
14172;DHT22;7165;52.388;4.928;2022-09-19T02:18:21;13.50;99.90
14172;DHT22;7165;52.388;4.928;2022-09-19T02:20:53;13.50;99.90
14172;DHT22;7165;52.388;4.928;2022-09-19T02:23:24;13.50;99.90
14172;DHT22;7165;52.388;4.928;2022-09-19T02:25:54;13.50;99.90
14172;DHT22;7165;52.388;4.928;2022-09-19T02:28:27;13.50;99.90
14172;DHT22;7165;52.388;4.928;2022-09-19T02:30:56;13.50;99.90
14172;DHT22;7165;52.388;4.928;2022-09-19T02:33:23;13.50;99.90
14172;DHT22;7165;52.388;4.928;2022-09-19T02:35:57;13.50;99.90
14172;DHT22;7165;52.388;4.928;2022-09-19T02:38:33;13.50;99.90
14172;DHT22;7165;52.388;4.928;2022-09-19T02:41:04;13.60;99.90
14172;DHT22;7165;52.388;4.928;2022-09-19T02:43:38;13.50;99.90
14172;DHT22;7165;52.388;4.928;2022-09-19T02:46:16;13.50;99.90
14172;DHT22;7165;52.388;4.928;2022-09-19T02:48:50;13.50;99.90
14172;DHT22;7165;52.388;4.928;2022-09-19T02:51:22;13.40;99.90
14172;DHT22;7165;52.388;4.928;2022-09-19T02:53:54;13.50;99.90
14172;DHT22;7165;52.388;4.928;2022-09-19T02:56:24;13.50;99.90
14172;DHT22;7165;52.388;4.928;2022-09-19T02:58:57;13.50;99.90
14172;DHT22;7165;52.388;4.928;2022-09-19T03:01:27;13.50;99.90
14172;DHT22;7165;52.388;4.928;2022-09-19T03:03:58;13.50;99.90
14172;DHT22;7165;52.388;4.928;2022-09-19T03:06:42;13.50;99.90
14172;DHT22;7165;52.388;4.928;2022-09-19T03:09:11;13.50;99.90
14172;DHT22;7165;52.388;4.928;2022-09-19T03:11:42;13.40;99.90
14172;DHT22;7165;52.388;4.928;2022-09-19T03:14:14;13.40;99.90
14172;DHT22;7165;52.388;4.928;2022-09-19T03:16:45;13.50;99.90
14172;DHT22;7165;52.388;4.928;2022-09-19T03:19:13;13.50;99.90
14172;DHT22;7165;52.388;4.928;2022-09-19T03:21:40;13.50;99.90
14172;DHT22;7165;52.388;4.928;2022-09-19T03:24:07;13.50;99.90
14172;DHT22;7165;52.388;4.928;2022-09-19T03:26:36;13.40;99.90
14172;DHT22;7165;52.388;4.928;2022-09-19T03:29:05;13.40;99.90
14172;DHT22;7165;52.388;4.928;2022-09-19T03:31:32;13.40;99.90
14172;DHT22;7165;52.388;4.928;2022-09-19T03:34:01;13.30;99.90
14172;DHT22;7165;52.388;4.928;2022-09-19T03:36:28;13.30;99.90
14172;DHT22;7165;52.388;4.928;2022-09-19T03:38:56;13.20;99.90
14172;DHT22;7165;52.388;4.928;2022-09-19T03:41:28;13.20;99.90
14172;DHT22;7165;52.388;4.928;2022-09-19T03:43:55;13.20;99.90
14172;DHT22;7165;52.388;4.928;2022-09-19T03:46:25;13.30;99.90
14172;DHT22;7165;52.388;4.928;2022-09-19T03:48:53;13.30;99.90
14172;DHT22;7165;52.388;4.928;2022-09-19T03:51:21;13.40;99.90
14172;DHT22;7165;52.388;4.928;2022-09-19T03:53:48;13.40;99.90
14172;DHT22;7165;52.388;4.928;2022-09-19T03:56:15;13.40;99.90
14172;DHT22;7165;52.388;4.928;2022-09-19T03:58:43;13.50;99.90
14172;DHT22;7165;52.388;4.928;2022-09-19T04:01:11;13.50;99.90
14172;DHT22;7165;52.388;4.928;2022-09-19T04:03:41;13.50;99.90
14172;DHT22;7165;52.388;4.928;2022-09-19T04:06:08;13.60;99.90
14172;DHT22;7165;52.388;4.928;2022-09-19T04:08:36;13.50;99.90
14172;DHT22;7165;52.388;4.928;2022-09-19T04:11:04;13.50;99.90
14172;DHT22;7165;52.388;4.928;2022-09-19T04:13:31;13.50;99.90
14172;DHT22;7165;52.388;4.928;2022-09-19T04:15:59;13.60;99.90
14172;DHT22;7165;52.388;4.928;2022-09-19T04:18:27;13.60;99.90
14172;DHT22;7165;52.388;4.928;2022-09-19T04:20:54;13.50;99.90
14172;DHT22;7165;52.388;4.928;2022-09-19T04:23:22;13.50;99.90
14172;DHT22;7165;52.388;4.928;2022-09-19T04:25:52;13.60;99.90
14172;DHT22;7165;52.388;4.928;2022-09-19T04:28:20;13.60;99.90
14172;DHT22;7165;52.388;4.928;2022-09-19T04:30:49;13.50;99.90
14172;DHT22;7165;52.388;4.928;2022-09-19T04:33:16;13.60;99.90
14172;DHT22;7165;52.388;4.928;2022-09-19T04:35:45;13.50;99.90
14172;DHT22;7165;52.388;4.928;2022-09-19T04:38:14;13.50;99.90
14172;DHT22;7165;52.388;4.928;2022-09-19T04:40:44;13.60;99.90
14172;DHT22;7165;52.388;4.928;2022-09-19T04:43:14;13.60;99.90
14172;DHT22;7165;52.388;4.928;2022-09-19T04:45:41;13.50;99.90
14172;DHT22;7165;52.388;4.928;2022-09-19T04:48:10;13.50;99.90
14172;DHT22;7165;52.388;4.928;2022-09-19T04:50:38;13.50;99.90
14172;DHT22;7165;52.388;4.928;2022-09-19T04:53:05;13.40;99.90
14172;DHT22;7165;52.388;4.928;2022-09-19T04:55:32;13.40;99.90
14172;DHT22;7165;52.388;4.928;2022-09-19T04:57:58;13.50;99.90
14172;DHT22;7165;52.388;4.928;2022-09-19T05:00:27;13.50;99.90
14172;DHT22;7165;52.388;4.928;2022-09-19T05:03:04;13.50;99.90
14172;DHT22;7165;52.388;4.928;2022-09-19T05:05:34;13.50;99.90
14172;DHT22;7165;52.388;4.928;2022-09-19T05:08:02;13.50;99.90
14172;DHT22;7165;52.388;4.928;2022-09-19T05:10:29;13.50;99.90
14172;DHT22;7165;52.388;4.928;2022-09-19T05:12:56;13.50;99.90
14172;DHT22;7165;52.388;4.928;2022-09-19T05:15:23;13.50;99.90
14172;DHT22;7165;52.388;4.928;2022-09-19T05:17:52;13.50;99.90
14172;DHT22;7165;52.388;4.928;2022-09-19T05:20:21;13.50;99.90
14172;DHT22;7165;52.388;4.928;2022-09-19T05:22:47;13.50;99.90
14172;DHT22;7165;52.388;4.928;2022-09-19T05:25:14;13.50;99.90
14172;DHT22;7165;52.388;4.928;2022-09-19T05:27:42;13.50;99.90
14172;DHT22;7165;52.388;4.928;2022-09-19T05:30:10;13.50;99.90
14172;DHT22;7165;52.388;4.928;2022-09-19T05:32:37;13.50;99.90
14172;DHT22;7165;52.388;4.928;2022-09-19T05:35:11;13.50;99.90
14172;DHT22;7165;52.388;4.928;2022-09-19T05:37:41;13.60;99.90
14172;DHT22;7165;52.388;4.928;2022-09-19T05:40:09;13.50;99.90
14172;DHT22;7165;52.388;4.928;2022-09-19T05:42:39;13.60;99.90
14172;DHT22;7165;52.388;4.928;2022-09-19T05:45:08;13.50;99.90
14172;DHT22;7165;52.388;4.928;2022-09-19T05:47:35;13.50;99.90
14172;DHT22;7165;52.388;4.928;2022-09-19T05:50:05;13.60;99.90
14172;DHT22;7165;52.388;4.928;2022-09-19T05:52:35;13.60;99.90
14172;DHT22;7165;52.388;4.928;2022-09-19T05:55:19;13.60;99.90
14172;DHT22;7165;52.388;4.928;2022-09-19T05:57:50;13.60;99.90
14172;DHT22;7165;52.388;4.928;2022-09-19T06:00:17;13.60;99.90
14172;DHT22;7165;52.388;4.928;2022-09-19T06:02:44;13.60;99.90
14172;DHT22;7165;52.388;4.928;2022-09-19T06:05:17;13.60;99.90
14172;DHT22;7165;52.388;4.928;2022-09-19T06:07:45;13.60;99.90
14172;DHT22;7165;52.388;4.928;2022-09-19T06:10:13;13.60;99.90
14172;DHT22;7165;52.388;4.928;2022-09-19T06:12:40;13.60;99.90
14172;DHT22;7165;52.388;4.928;2022-09-19T06:15:07;13.60;99.90
14172;DHT22;7165;52.388;4.928;2022-09-19T06:17:34;13.60;99.90
14172;DHT22;7165;52.388;4.928;2022-09-19T06:20:01;13.60;99.90
14172;DHT22;7165;52.388;4.928;2022-09-19T06:22:28;13.60;99.90
14172;DHT22;7165;52.388;4.928;2022-09-19T06:24:56;13.60;99.90
14172;DHT22;7165;52.388;4.928;2022-09-19T06:27:23;13.60;99.90
14172;DHT22;7165;52.388;4.928;2022-09-19T06:29:50;13.60;99.90
14172;DHT22;7165;52.388;4.928;2022-09-19T06:32:16;13.60;99.90
14172;DHT22;7165;52.388;4.928;2022-09-19T06:34:43;13.60;99.90
14172;DHT22;7165;52.388;4.928;2022-09-19T06:37:10;13.70;99.90
14172;DHT22;7165;52.388;4.928;2022-09-19T06:39:37;13.70;99.90
14172;DHT22;7165;52.388;4.928;2022-09-19T06:42:06;13.70;99.90
14172;DHT22;7165;52.388;4.928;2022-09-19T06:44:34;13.70;99.90
14172;DHT22;7165;52.388;4.928;2022-09-19T06:47:00;13.70;99.90
14172;DHT22;7165;52.388;4.928;2022-09-19T06:49:27;13.70;99.90
14172;DHT22;7165;52.388;4.928;2022-09-19T06:51:54;13.70;99.90
14172;DHT22;7165;52.388;4.928;2022-09-19T06:54:22;13.70;99.90
14172;DHT22;7165;52.388;4.928;2022-09-19T06:56:50;13.70;99.90
14172;DHT22;7165;52.388;4.928;2022-09-19T06:59:18;13.70;99.90
14172;DHT22;7165;52.388;4.928;2022-09-19T07:01:45;13.80;99.90
14172;DHT22;7165;52.388;4.928;2022-09-19T07:04:12;13.90;99.90
14172;DHT22;7165;52.388;4.928;2022-09-19T07:06:39;14.00;99.90
14172;DHT22;7165;52.388;4.928;2022-09-19T07:09:05;14.10;99.90
14172;DHT22;7165;52.388;4.928;2022-09-19T07:11:33;14.20;99.90
14172;DHT22;7165;52.388;4.928;2022-09-19T07:14:01;14.30;99.90
14172;DHT22;7165;52.388;4.928;2022-09-19T07:16:30;14.40;99.90
14172;DHT22;7165;52.388;4.928;2022-09-19T07:18:56;14.50;99.90
14172;DHT22;7165;52.388;4.928;2022-09-19T07:21:23;14.70;99.90
14172;DHT22;7165;52.388;4.928;2022-09-19T07:23:50;14.80;99.90
14172;DHT22;7165;52.388;4.928;2022-09-19T07:26:17;14.90;99.90
14172;DHT22;7165;52.388;4.928;2022-09-19T07:28:44;15.00;99.90
14172;DHT22;7165;52.388;4.928;2022-09-19T07:31:11;15.20;99.90
14172;DHT22;7165;52.388;4.928;2022-09-19T07:33:39;15.40;99.90
14172;DHT22;7165;52.388;4.928;2022-09-19T07:36:05;15.60;99.90
14172;DHT22;7165;52.388;4.928;2022-09-19T07:38:32;15.60;99.90
14172;DHT22;7165;52.388;4.928;2022-09-19T07:41:00;15.50;99.90
14172;DHT22;7165;52.388;4.928;2022-09-19T07:43:26;15.50;99.90
14172;DHT22;7165;52.388;4.928;2022-09-19T07:45:53;15.40;99.90
14172;DHT22;7165;52.388;4.928;2022-09-19T07:48:20;15.30;99.90
14172;DHT22;7165;52.388;4.928;2022-09-19T07:50:49;15.30;99.90
14172;DHT22;7165;52.388;4.928;2022-09-19T07:53:16;15.30;99.90
14172;DHT22;7165;52.388;4.928;2022-09-19T07:55:48;15.20;99.90
14172;DHT22;7165;52.388;4.928;2022-09-19T07:58:14;15.20;99.90
14172;DHT22;7165;52.388;4.928;2022-09-19T08:00:41;15.30;99.90
14172;DHT22;7165;52.388;4.928;2022-09-19T08:03:10;15.40;99.90
14172;DHT22;7165;52.388;4.928;2022-09-19T08:05:39;15.40;99.90
14172;DHT22;7165;52.388;4.928;2022-09-19T08:08:09;15.50;99.90
14172;DHT22;7165;52.388;4.928;2022-09-19T08:10:37;15.60;99.90
14172;DHT22;7165;52.388;4.928;2022-09-19T08:13:05;15.70;99.90
14172;DHT22;7165;52.388;4.928;2022-09-19T08:15:33;15.70;99.90
14172;DHT22;7165;52.388;4.928;2022-09-19T08:18:02;15.70;99.90
14172;DHT22;7165;52.388;4.928;2022-09-19T08:20:31;15.60;99.90
14172;DHT22;7165;52.388;4.928;2022-09-19T08:22:59;15.60;99.90
14172;DHT22;7165;52.388;4.928;2022-09-19T08:25:29;15.60;99.90
14172;DHT22;7165;52.388;4.928;2022-09-19T08:27:56;15.60;99.90
14172;DHT22;7165;52.388;4.928;2022-09-19T08:30:23;15.70;99.90
14172;DHT22;7165;52.388;4.928;2022-09-19T08:32:50;15.80;99.90
14172;DHT22;7165;52.388;4.928;2022-09-19T08:35:18;15.80;99.90
14172;DHT22;7165;52.388;4.928;2022-09-19T08:37:46;15.90;99.90
14172;DHT22;7165;52.388;4.928;2022-09-19T08:40:14;15.90;99.90
14172;DHT22;7165;52.388;4.928;2022-09-19T08:42:51;15.90;99.90
14172;DHT22;7165;52.388;4.928;2022-09-19T08:45:27;16.00;99.90
14172;DHT22;7165;52.388;4.928;2022-09-19T08:48:02;16.00;99.90
14172;DHT22;7165;52.388;4.928;2022-09-19T08:50:33;16.10;99.90
14172;DHT22;7165;52.388;4.928;2022-09-19T08:53:02;16.30;99.90
14172;DHT22;7165;52.388;4.928;2022-09-19T08:55:33;16.60;99.90
14172;DHT22;7165;52.388;4.928;2022-09-19T08:58:04;16.60;99.90
14172;DHT22;7165;52.388;4.928;2022-09-19T09:00:38;16.60;99.90
14172;DHT22;7165;52.388;4.928;2022-09-19T09:03:06;16.40;99.90
14172;DHT22;7165;52.388;4.928;2022-09-19T09:05:42;16.40;99.90
14172;DHT22;7165;52.388;4.928;2022-09-19T09:08:16;16.50;99.90
14172;DHT22;7165;52.388;4.928;2022-09-19T09:10:50;16.40;99.90
14172;DHT22;7165;52.388;4.928;2022-09-19T09:13:30;16.40;99.90
14172;DHT22;7165;52.388;4.928;2022-09-19T09:16:09;16.50;99.90
14172;DHT22;7165;52.388;4.928;2022-09-19T09:18:58;16.70;99.90
14172;DHT22;7165;52.388;4.928;2022-09-19T09:21:33;16.80;99.90
14172;DHT22;7165;52.388;4.928;2022-09-19T09:24:08;16.90;99.90
14172;DHT22;7165;52.388;4.928;2022-09-19T09:26:41;16.90;99.90
14172;DHT22;7165;52.388;4.928;2022-09-19T09:29:16;16.70;99.90
14172;DHT22;7165;52.388;4.928;2022-09-19T09:31:55;16.50;99.90
14172;DHT22;7165;52.388;4.928;2022-09-19T09:34:26;16.50;99.90
14172;DHT22;7165;52.388;4.928;2022-09-19T09:36:57;16.60;99.90
14172;DHT22;7165;52.388;4.928;2022-09-19T09:39:30;16.90;99.90
14172;DHT22;7165;52.388;4.928;2022-09-19T09:42:05;17.10;99.90
14172;DHT22;7165;52.388;4.928;2022-09-19T09:44:47;17.20;99.90
14172;DHT22;7165;52.388;4.928;2022-09-19T09:47:31;17.20;99.90
14172;DHT22;7165;52.388;4.928;2022-09-19T09:50:17;17.20;99.90
14172;DHT22;7165;52.388;4.928;2022-09-19T09:52:54;17.10;99.90
14172;DHT22;7165;52.388;4.928;2022-09-19T09:55:34;16.80;99.90
14172;DHT22;7165;52.388;4.928;2022-09-19T09:58:24;16.60;99.90
14172;DHT22;7165;52.388;4.928;2022-09-19T10:01:14;16.30;99.90
14172;DHT22;7165;52.388;4.928;2022-09-19T10:04:07;16.20;99.90
14172;DHT22;7165;52.388;4.928;2022-09-19T10:06:40;16.10;99.90
14172;DHT22;7165;52.388;4.928;2022-09-19T10:09:12;16.10;99.90
14172;DHT22;7165;52.388;4.928;2022-09-19T10:11:41;16.00;99.90
14172;DHT22;7165;52.388;4.928;2022-09-19T10:14:15;16.00;99.90
14172;DHT22;7165;52.388;4.928;2022-09-19T10:16:46;16.10;99.90
14172;DHT22;7165;52.388;4.928;2022-09-19T10:19:22;16.30;99.90
14172;DHT22;7165;52.388;4.928;2022-09-19T10:21:53;16.60;99.90
14172;DHT22;7165;52.388;4.928;2022-09-19T10:24:40;17.00;99.90
14172;DHT22;7165;52.388;4.928;2022-09-19T10:27:10;17.10;99.90
14172;DHT22;7165;52.388;4.928;2022-09-19T10:29:50;17.20;99.90
14172;DHT22;7165;52.388;4.928;2022-09-19T10:32:22;17.20;99.90
14172;DHT22;7165;52.388;4.928;2022-09-19T10:34:50;17.10;99.90
14172;DHT22;7165;52.388;4.928;2022-09-19T10:37:18;17.00;99.90
14172;DHT22;7165;52.388;4.928;2022-09-19T10:39:47;16.80;99.90
14172;DHT22;7165;52.388;4.928;2022-09-19T10:42:29;16.50;99.90
14172;DHT22;7165;52.388;4.928;2022-09-19T10:45:00;16.40;99.90
14172;DHT22;7165;52.388;4.928;2022-09-19T10:47:28;16.20;99.90
14172;DHT22;7165;52.388;4.928;2022-09-19T10:50:00;16.20;99.90
14172;DHT22;7165;52.388;4.928;2022-09-19T10:52:29;16.10;99.90
14172;DHT22;7165;52.388;4.928;2022-09-19T10:55:01;15.80;99.90
14172;DHT22;7165;52.388;4.928;2022-09-19T10:57:36;15.70;99.90
14172;DHT22;7165;52.388;4.928;2022-09-19T11:00:20;15.50;99.90
14172;DHT22;7165;52.388;4.928;2022-09-19T11:03:05;15.30;99.90
14172;DHT22;7165;52.388;4.928;2022-09-19T11:05:34;15.20;99.90
14172;DHT22;7165;52.388;4.928;2022-09-19T11:08:03;15.20;99.90
14172;DHT22;7165;52.388;4.928;2022-09-19T11:10:40;15.30;99.90
14172;DHT22;7165;52.388;4.928;2022-09-19T11:13:13;15.80;99.90
14172;DHT22;7165;52.388;4.928;2022-09-19T11:19:02;16.80;99.90
14172;DHT22;7165;52.388;4.928;2022-09-19T11:21:44;17.10;99.90
14172;DHT22;7165;52.388;4.928;2022-09-19T11:24:21;17.10;99.90
14172;DHT22;7165;52.388;4.928;2022-09-19T11:27:05;17.00;99.90
14172;DHT22;7165;52.388;4.928;2022-09-19T11:29:56;17.30;99.90
14172;DHT22;7165;52.388;4.928;2022-09-19T11:32:41;17.70;99.90
14172;DHT22;7165;52.388;4.928;2022-09-19T11:35:23;18.10;99.90
14172;DHT22;7165;52.388;4.928;2022-09-19T11:38:00;18.20;99.90
14172;DHT22;7165;52.388;4.928;2022-09-19T11:40:38;18.10;99.90
14172;DHT22;7165;52.388;4.928;2022-09-19T11:43:18;17.90;99.90
14172;DHT22;7165;52.388;4.928;2022-09-19T11:45:55;18.00;99.90
14172;DHT22;7165;52.388;4.928;2022-09-19T11:48:44;18.00;99.90
14172;DHT22;7165;52.388;4.928;2022-09-19T11:51:19;18.00;99.90
14172;DHT22;7165;52.388;4.928;2022-09-19T11:54:07;17.90;99.90
14172;DHT22;7165;52.388;4.928;2022-09-19T11:56:54;17.60;99.90
14172;DHT22;7165;52.388;4.928;2022-09-19T11:59:46;17.40;99.90
14172;DHT22;7165;52.388;4.928;2022-09-19T12:02:29;17.70;99.90
14172;DHT22;7165;52.388;4.928;2022-09-19T12:05:10;17.90;99.90
14172;DHT22;7165;52.388;4.928;2022-09-19T12:07:48;18.20;99.90
14172;DHT22;7165;52.388;4.928;2022-09-19T12:10:24;18.10;99.90
14172;DHT22;7165;52.388;4.928;2022-09-19T12:12:58;17.80;99.90
14172;DHT22;7165;52.388;4.928;2022-09-19T12:15:29;17.40;99.90
14172;DHT22;7165;52.388;4.928;2022-09-19T12:18:05;17.00;99.90
14172;DHT22;7165;52.388;4.928;2022-09-19T12:20:38;16.90;99.90
14172;DHT22;7165;52.388;4.928;2022-09-19T12:23:15;16.80;99.90
14172;DHT22;7165;52.388;4.928;2022-09-19T12:26:02;16.80;99.90
14172;DHT22;7165;52.388;4.928;2022-09-19T12:28:32;16.80;99.90
14172;DHT22;7165;52.388;4.928;2022-09-19T12:31:01;16.90;99.90
14172;DHT22;7165;52.388;4.928;2022-09-19T12:33:34;17.00;99.90
14172;DHT22;7165;52.388;4.928;2022-09-19T12:36:10;17.20;99.90
14172;DHT22;7165;52.388;4.928;2022-09-19T12:38:46;17.10;99.90
14172;DHT22;7165;52.388;4.928;2022-09-19T12:41:16;16.90;99.90
14172;DHT22;7165;52.388;4.928;2022-09-19T12:43:49;16.80;99.90
14172;DHT22;7165;52.388;4.928;2022-09-19T12:46:32;16.60;99.90
14172;DHT22;7165;52.388;4.928;2022-09-19T12:49:04;16.50;99.90
14172;DHT22;7165;52.388;4.928;2022-09-19T12:51:44;16.50;99.90
14172;DHT22;7165;52.388;4.928;2022-09-19T12:54:18;16.60;99.90
14172;DHT22;7165;52.388;4.928;2022-09-19T12:56:51;16.60;99.90
14172;DHT22;7165;52.388;4.928;2022-09-19T12:59:21;16.50;99.90
14172;DHT22;7165;52.388;4.928;2022-09-19T13:01:52;16.40;99.90
14172;DHT22;7165;52.388;4.928;2022-09-19T13:04:27;16.40;99.90
14172;DHT22;7165;52.388;4.928;2022-09-19T13:07:00;16.40;99.90
14172;DHT22;7165;52.388;4.928;2022-09-19T13:09:33;16.60;99.90
14172;DHT22;7165;52.388;4.928;2022-09-19T13:12:06;16.60;99.90
14172;DHT22;7165;52.388;4.928;2022-09-19T13:14:44;16.70;99.90
14172;DHT22;7165;52.388;4.928;2022-09-19T13:17:12;16.80;99.90
14172;DHT22;7165;52.388;4.928;2022-09-19T13:20:00;17.00;99.90
14172;DHT22;7165;52.388;4.928;2022-09-19T13:22:48;17.20;99.90
14172;DHT22;7165;52.388;4.928;2022-09-19T13:25:35;17.30;99.90
14172;DHT22;7165;52.388;4.928;2022-09-19T13:28:25;17.50;99.90
14172;DHT22;7165;52.388;4.928;2022-09-19T13:31:00;17.60;99.90
14172;DHT22;7165;52.388;4.928;2022-09-19T13:33:42;17.70;99.90
14172;DHT22;7165;52.388;4.928;2022-09-19T13:36:12;17.80;99.90
14172;DHT22;7165;52.388;4.928;2022-09-19T13:38:46;17.90;99.90
14172;DHT22;7165;52.388;4.928;2022-09-19T13:41:23;18.00;99.90
14172;DHT22;7165;52.388;4.928;2022-09-19T13:44:09;18.10;99.90
14172;DHT22;7165;52.388;4.928;2022-09-19T13:46:45;18.00;99.90
14172;DHT22;7165;52.388;4.928;2022-09-19T13:49:18;17.70;99.90
14172;DHT22;7165;52.388;4.928;2022-09-19T13:51:52;17.40;99.90
14172;DHT22;7165;52.388;4.928;2022-09-19T13:54:35;16.90;99.90
14172;DHT22;7165;52.388;4.928;2022-09-19T13:57:16;16.50;99.90
14172;DHT22;7165;52.388;4.928;2022-09-19T13:59:49;16.30;99.90
14172;DHT22;7165;52.388;4.928;2022-09-19T14:02:31;16.30;99.90
14172;DHT22;7165;52.388;4.928;2022-09-19T14:05:06;16.30;99.90
14172;DHT22;7165;52.388;4.928;2022-09-19T14:07:43;16.40;99.90
14172;DHT22;7165;52.388;4.928;2022-09-19T14:10:18;16.40;99.90
14172;DHT22;7165;52.388;4.928;2022-09-19T14:12:58;16.40;99.90
14172;DHT22;7165;52.388;4.928;2022-09-19T14:15:41;16.40;99.90
14172;DHT22;7165;52.388;4.928;2022-09-19T14:18:28;16.60;99.90
14172;DHT22;7165;52.388;4.928;2022-09-19T14:20:58;16.70;99.90
14172;DHT22;7165;52.388;4.928;2022-09-19T14:23:28;16.90;99.90
14172;DHT22;7165;52.388;4.928;2022-09-19T14:25:57;16.90;99.90
14172;DHT22;7165;52.388;4.928;2022-09-19T14:28:45;17.00;99.90
14172;DHT22;7165;52.388;4.928;2022-09-19T14:31:31;17.00;99.90
14172;DHT22;7165;52.388;4.928;2022-09-19T14:34:49;17.00;99.90
14172;DHT22;7165;52.388;4.928;2022-09-19T14:40:32;16.90;99.90
14172;DHT22;7165;52.388;4.928;2022-09-19T14:43:20;16.70;99.90
14172;DHT22;7165;52.388;4.928;2022-09-19T14:46:17;16.70;99.90
14172;DHT22;7165;52.388;4.928;2022-09-19T14:48:53;16.70;99.90
14172;DHT22;7165;52.388;4.928;2022-09-19T14:51:34;16.70;99.90
14172;DHT22;7165;52.388;4.928;2022-09-19T14:54:10;16.80;99.90
14172;DHT22;7165;52.388;4.928;2022-09-19T14:56:39;17.40;99.90
14172;DHT22;7165;52.388;4.928;2022-09-19T14:59:17;17.80;99.90
14172;DHT22;7165;52.388;4.928;2022-09-19T15:01:45;18.00;99.90
14172;DHT22;7165;52.388;4.928;2022-09-19T15:04:18;17.90;99.90
14172;DHT22;7165;52.388;4.928;2022-09-19T15:06:49;17.80;99.90
14172;DHT22;7165;52.388;4.928;2022-09-19T15:09:19;17.60;99.90
14172;DHT22;7165;52.388;4.928;2022-09-19T15:11:47;17.40;99.90
14172;DHT22;7165;52.388;4.928;2022-09-19T15:14:16;17.20;99.90
14172;DHT22;7165;52.388;4.928;2022-09-19T15:16:44;17.00;99.90
14172;DHT22;7165;52.388;4.928;2022-09-19T15:19:11;16.90;99.90
14172;DHT22;7165;52.388;4.928;2022-09-19T15:21:38;16.90;99.90
14172;DHT22;7165;52.388;4.928;2022-09-19T15:24:05;16.90;99.90
14172;DHT22;7165;52.388;4.928;2022-09-19T15:26:44;16.90;99.90
14172;DHT22;7165;52.388;4.928;2022-09-19T15:29:22;16.90;99.90
14172;DHT22;7165;52.388;4.928;2022-09-19T15:32:13;16.90;99.90
14172;DHT22;7165;52.388;4.928;2022-09-19T15:34:40;17.10;99.90
14172;DHT22;7165;52.388;4.928;2022-09-19T15:37:12;17.20;99.90
14172;DHT22;7165;52.388;4.928;2022-09-19T15:39:40;17.30;99.90
14172;DHT22;7165;52.388;4.928;2022-09-19T15:42:08;17.60;99.90
14172;DHT22;7165;52.388;4.928;2022-09-19T15:44:37;17.70;99.90
14172;DHT22;7165;52.388;4.928;2022-09-19T15:47:12;17.50;99.90
14172;DHT22;7165;52.388;4.928;2022-09-19T15:49:41;17.30;99.90
14172;DHT22;7165;52.388;4.928;2022-09-19T15:52:13;17.10;99.90
14172;DHT22;7165;52.388;4.928;2022-09-19T15:54:47;16.90;99.90
14172;DHT22;7165;52.388;4.928;2022-09-19T15:57:19;16.80;99.90
14172;DHT22;7165;52.388;4.928;2022-09-19T15:59:52;16.70;99.90
14172;DHT22;7165;52.388;4.928;2022-09-19T16:02:30;16.60;99.90
14172;DHT22;7165;52.388;4.928;2022-09-19T16:05:04;16.50;99.90
14172;DHT22;7165;52.388;4.928;2022-09-19T16:07:37;16.40;99.90
14172;DHT22;7165;52.388;4.928;2022-09-19T16:10:20;16.40;99.90
14172;DHT22;7165;52.388;4.928;2022-09-19T16:12:48;16.40;99.90
14172;DHT22;7165;52.388;4.928;2022-09-19T16:15:22;16.30;99.90
14172;DHT22;7165;52.388;4.928;2022-09-19T16:18:19;16.20;99.90
14172;DHT22;7165;52.388;4.928;2022-09-19T16:20:54;16.10;99.90
14172;DHT22;7165;52.388;4.928;2022-09-19T16:23:23;16.10;99.90
14172;DHT22;7165;52.388;4.928;2022-09-19T16:25:53;16.00;99.90
14172;DHT22;7165;52.388;4.928;2022-09-19T16:28:26;16.00;99.90
14172;DHT22;7165;52.388;4.928;2022-09-19T16:30:57;16.00;99.90